createdAt,value
2022-10-22T00:01:46.894Z,13.63
2022-10-22T00:06:47.767Z,13.62
2022-10-22T00:11:46.678Z,13.62
2022-10-22T00:16:47.299Z,13.58
2022-10-22T00:21:46.199Z,13.43
2022-10-22T00:26:45.002Z,13.43
2022-10-22T00:31:46.941Z,13.23
2022-10-22T00:36:47.364Z,13.15
2022-10-22T00:41:47.231Z,13.15
2022-10-22T00:46:46.072Z,13.03
2022-10-22T00:51:46.855Z,12.99
2022-10-22T00:56:46.479Z,12.93
2022-10-22T01:01:46.948Z,12.94
2022-10-22T01:06:47.838Z,12.89
2022-10-22T01:11:58.780Z,12.90
2022-10-22T01:17:04.194Z,12.90
2022-10-22T01:22:09.743Z,12.93
2022-10-22T01:27:21.369Z,12.85
2022-10-22T01:32:25.075Z,12.82
2022-10-22T01:37:27.347Z,12.85
2022-10-22T01:42:26.605Z,12.82
2022-10-22T01:47:38.237Z,12.72
2022-10-22T01:52:53.779Z,12.66
2022-10-22T01:58:03.234Z,12.56
2022-10-22T02:03:09.241Z,12.53
2022-10-22T02:08:11.148Z,12.54
2022-10-22T02:13:14.466Z,12.45
2022-10-22T02:18:15.555Z,12.22
2022-10-22T02:23:14.741Z,12.27
2022-10-22T02:28:25.163Z,12.28
2022-10-22T02:33:30.064Z,12.29
2022-10-22T02:38:30.474Z,12.27
2022-10-22T02:43:30.531Z,12.21
2022-10-22T02:48:30.935Z,12.12
2022-10-22T02:53:29.815Z,12.07
2022-10-22T02:58:28.844Z,12.04
2022-10-22T03:03:27.626Z,11.97
2022-10-22T03:08:27.935Z,11.93
2022-10-22T03:13:26.841Z,11.80
2022-10-22T03:18:27.594Z,11.68
2022-10-22T03:23:27.826Z,11.59
2022-10-22T03:28:27.437Z,11.52
2022-10-22T03:33:26.379Z,11.47
2022-10-22T03:38:25.414Z,11.43
2022-10-22T03:43:26.024Z,11.40
2022-10-22T03:48:24.920Z,11.30
2022-10-22T03:53:23.751Z,11.27
2022-10-22T03:58:22.692Z,11.27
2022-10-22T04:03:22.909Z,11.28
2022-10-22T04:08:21.811Z,11.27
2022-10-22T04:13:20.849Z,11.23
2022-10-22T04:18:19.845Z,11.22
2022-10-22T04:23:20.144Z,11.25
2022-10-22T04:28:19.010Z,11.19
2022-10-22T04:33:18.008Z,11.20
2022-10-22T04:38:17.167Z,11.15
2022-10-22T04:43:18.463Z,11.25
2022-10-22T04:48:17.328Z,11.34
2022-10-22T04:53:16.150Z,11.40
2022-10-22T04:58:14.936Z,11.37
2022-10-22T05:03:15.191Z,11.44
2022-10-22T05:08:17.826Z,11.54
2022-10-22T05:13:30.298Z,11.64
2022-10-22T05:18:31.047Z,11.72
2022-10-22T05:23:30.573Z,11.79
2022-10-22T05:28:29.477Z,11.91
2022-10-22T05:33:30.904Z,11.88
2022-10-22T05:38:29.801Z,11.88
2022-10-22T05:43:28.882Z,12.05
2022-10-22T05:48:27.751Z,12.29
2022-10-22T05:53:28.309Z,12.49
2022-10-22T05:58:27.249Z,12.68
2022-10-22T06:03:27.520Z,12.89
2022-10-22T06:08:28.116Z,13.10
2022-10-22T06:13:27.108Z,13.26
2022-10-22T06:18:26.025Z,13.41
2022-10-22T06:23:24.842Z,13.55
2022-10-22T06:28:25.103Z,13.65
2022-10-22T06:33:23.954Z,13.81
2022-10-22T06:38:22.956Z,13.92
2022-10-22T06:43:21.764Z,13.97
2022-10-22T06:48:22.984Z,13.89
2022-10-22T06:53:21.821Z,13.72
2022-10-22T06:58:20.843Z,13.59
2022-10-22T07:03:23.839Z,13.83
2022-10-22T07:08:22.527Z,13.94
2022-10-22T07:13:22.388Z,13.75
2022-10-22T07:18:23.166Z,13.99
2022-10-22T07:23:25.367Z,14.24
2022-10-22T07:28:26.540Z,14.43
2022-10-22T07:33:27.490Z,14.67
2022-10-22T07:38:27.021Z,14.89
2022-10-22T07:43:26.726Z,14.93
2022-10-22T07:48:27.288Z,15.11
2022-10-22T07:53:26.202Z,15.41
2022-10-22T07:58:25.852Z,15.71
2022-10-22T08:03:29.080Z,15.96
2022-10-22T08:08:30.830Z,16.05
2022-10-22T08:13:31.581Z,16.21
2022-10-22T08:19:24.328Z,16.34
2022-10-22T08:24:24.614Z,16.40
2022-10-22T08:29:38.501Z,16.14
2022-10-22T08:34:37.478Z,16.29
2022-10-22T08:39:38.144Z,16.58
2022-10-22T08:44:54.240Z,16.67
2022-10-22T08:49:57.117Z,16.96
2022-10-22T08:54:59.679Z,16.89
2022-10-22T09:00:05.840Z,16.53
2022-10-22T09:05:17.324Z,16.74
2022-10-22T09:10:19.509Z,17.10
2022-10-22T09:15:23.413Z,17.40
2022-10-22T09:20:29.971Z,17.68
2022-10-22T09:25:33.299Z,17.94
2022-10-22T09:30:36.903Z,18.13
2022-10-22T09:35:45.211Z,18.33
2022-10-22T09:40:50.361Z,18.43
2022-10-22T09:45:50.165Z,18.84
2022-10-22T09:50:51.041Z,19.25
2022-10-22T09:55:58.360Z,19.45
2022-10-22T10:00:58.863Z,19.69
2022-10-22T10:06:04.797Z,19.69
2022-10-22T10:11:12.553Z,19.95
2022-10-22T10:16:22.189Z,20.41
2022-10-22T10:21:31.811Z,21.02
2022-10-22T10:26:39.274Z,20.79
2022-10-22T10:31:48.224Z,21.39
2022-10-22T10:36:59.560Z,21.91
2022-10-22T10:42:07.531Z,22.28
2022-10-22T10:47:20.479Z,22.51
2022-10-22T10:52:31.601Z,22.78
2022-10-22T10:57:43.774Z,23.38
2022-10-22T11:03:23.680Z,23.28
2022-10-22T11:08:26.025Z,22.73
2022-10-22T11:13:32.480Z,22.87
2022-10-22T11:18:37.390Z,22.94
2022-10-22T11:23:42.514Z,23.33
2022-10-22T11:28:49.041Z,23.04
2022-10-22T11:34:00.459Z,23.15
2022-10-22T11:39:09.031Z,23.38
2022-10-22T11:44:14.718Z,23.45
2022-10-22T11:49:25.208Z,23.67
2022-10-22T11:54:43.537Z,23.60
2022-10-22T11:59:51.434Z,23.66
2022-10-22T12:04:50.285Z,23.88
2022-10-22T12:14:59.409Z,24.78
2022-10-22T12:20:03.519Z,25.12
2022-10-22T12:25:04.298Z,25.40
2022-10-22T12:30:19.043Z,25.84
2022-10-22T12:35:21.238Z,26.07
2022-10-22T12:40:22.735Z,26.21
2022-10-22T12:45:24.580Z,26.45
2022-10-22T12:50:30.604Z,26.79
2022-10-22T12:55:29.431Z,26.79
2022-10-22T13:00:35.865Z,26.86
2022-10-22T13:05:40.214Z,26.50
2022-10-22T13:10:41.217Z,26.26
2022-10-22T13:15:41.843Z,26.33
2022-10-22T13:20:52.130Z,26.75
2022-10-22T13:25:59.543Z,27.16
2022-10-22T13:31:01.247Z,27.48
2022-10-22T13:36:00.360Z,27.54
2022-10-22T13:40:59.808Z,27.30
2022-10-22T13:46:01.729Z,27.17
2022-10-22T13:51:00.614Z,26.98
2022-10-22T13:55:59.449Z,26.42
2022-10-22T14:01:02.993Z,25.95
2022-10-22T14:06:02.128Z,25.64
2022-10-22T14:11:01.049Z,25.27
2022-10-22T14:16:01.204Z,24.91
2022-10-22T14:21:04.918Z,24.58
2022-10-22T14:26:04.884Z,24.16
2022-10-22T14:31:05.074Z,23.87
2022-10-22T14:36:03.924Z,23.61
2022-10-22T14:41:02.782Z,23.35
2022-10-22T14:46:01.592Z,23.13
2022-10-22T14:51:01.774Z,22.93
2022-10-22T14:56:01.663Z,22.73
2022-10-22T15:01:03.351Z,22.55
2022-10-22T15:06:03.673Z,22.35
2022-10-22T15:11:03.511Z,22.19
2022-10-22T15:16:02.932Z,22.01
2022-10-22T15:21:04.744Z,21.82
2022-10-22T15:26:03.510Z,21.68
2022-10-22T15:31:02.483Z,21.50
2022-10-22T15:36:13.373Z,21.34
2022-10-22T15:41:13.906Z,21.12
2022-10-22T15:46:14.628Z,21.01
2022-10-22T15:51:18.310Z,20.93
2022-10-22T15:56:17.304Z,20.83
2022-10-22T16:01:16.193Z,20.74
2022-10-22T16:06:16.400Z,20.61
2022-10-22T16:11:15.233Z,20.46
2022-10-22T16:16:14.055Z,20.34
2022-10-22T16:21:15.501Z,20.27
2022-10-22T16:26:16.545Z,20.20
2022-10-22T16:31:17.307Z,20.14
2022-10-22T16:36:18.576Z,20.09
2022-10-22T16:41:20.178Z,20.04
2022-10-22T16:46:20.862Z,19.98
2022-10-22T16:51:20.994Z,19.93
2022-10-22T16:56:21.578Z,19.87
2022-10-22T17:01:21.928Z,19.79
2022-10-22T17:06:20.867Z,19.71
2022-10-22T17:11:23.579Z,19.61
2022-10-22T17:16:25.056Z,19.52
2022-10-22T17:21:24.702Z,19.38
2022-10-22T17:26:26.976Z,19.27
2022-10-22T17:31:26.763Z,19.21
2022-10-22T17:36:26.155Z,19.07
2022-10-22T17:41:29.576Z,19.01
2022-10-22T17:46:34.209Z,18.89
2022-10-22T17:51:33.782Z,18.76
2022-10-22T17:56:34.023Z,18.75
2022-10-22T18:01:34.579Z,18.73
2022-10-22T18:06:34.361Z,18.71
2022-10-22T18:11:36.642Z,18.74
2022-10-22T18:16:35.717Z,18.72
2022-10-22T18:21:34.652Z,18.70
2022-10-22T18:26:34.829Z,18.67
2022-10-22T18:31:33.798Z,18.57
2022-10-22T18:36:32.810Z,18.54
2022-10-22T18:41:33.300Z,18.53
2022-10-22T18:46:38.412Z,18.50
2022-10-22T18:51:37.640Z,18.45
2022-10-22T18:56:39.446Z,18.38
2022-10-22T19:01:39.681Z,18.28
2022-10-22T19:06:40.686Z,18.12
2022-10-22T19:11:42.387Z,18.00
2022-10-22T19:16:44.587Z,17.92
2022-10-22T19:21:43.415Z,17.84
2022-10-22T19:26:42.880Z,17.78
2022-10-22T19:31:41.807Z,17.72
2022-10-22T19:36:42.365Z,17.63
2022-10-22T19:41:41.145Z,17.53
2022-10-22T19:46:40.357Z,17.45
2022-10-22T19:51:40.266Z,17.35
2022-10-22T19:56:41.337Z,17.32
2022-10-22T20:01:40.116Z,17.29
2022-10-22T20:06:38.923Z,17.27
2022-10-22T20:11:37.766Z,17.24
2022-10-22T20:16:38.450Z,17.16
2022-10-22T20:21:40.436Z,17.06
2022-10-22T20:26:39.329Z,17.00
2022-10-22T20:31:39.528Z,16.98
2022-10-22T20:36:38.404Z,16.96
2022-10-22T20:41:40.387Z,16.95
2022-10-22T20:46:40.586Z,16.90
2022-10-22T20:51:39.739Z,16.86
2022-10-22T20:56:40.564Z,16.83
2022-10-22T21:01:42.849Z,16.79
2022-10-22T21:06:43.207Z,16.77
2022-10-22T21:11:43.967Z,16.76
2022-10-22T21:16:45.923Z,16.72
2022-10-22T21:21:44.724Z,16.66
2022-10-22T21:26:44.701Z,16.59
2022-10-22T21:31:58.912Z,16.55
2022-10-22T21:36:57.914Z,16.50
2022-10-22T21:41:56.829Z,16.49
2022-10-22T21:46:57.086Z,16.49
2022-10-22T21:51:55.888Z,16.45
2022-10-22T21:56:54.697Z,16.42
2022-10-22T22:01:53.503Z,16.30
2022-10-22T22:06:54.093Z,16.26
2022-10-22T22:11:52.891Z,16.12
2022-10-22T22:16:51.655Z,16.09
2022-10-22T22:21:52.475Z,16.04
2022-10-22T22:26:52.681Z,15.99
2022-10-22T22:31:51.461Z,15.94
2022-10-22T22:36:50.567Z,15.90
2022-10-22T22:41:49.689Z,15.84
2022-10-22T22:46:49.938Z,15.77
2022-10-22T22:51:52.085Z,15.73
2022-10-22T22:56:51.509Z,15.70
2022-10-22T23:01:51.734Z,15.67
2022-10-22T23:06:51.060Z,15.68
2022-10-22T23:11:50.763Z,15.66
2022-10-22T23:16:52.494Z,15.66
2022-10-22T23:21:52.869Z,15.63
2022-10-22T23:26:53.930Z,15.58
2022-10-22T23:31:54.730Z,15.52
2022-10-22T23:36:54.457Z,15.50
2022-10-22T23:41:54.085Z,15.50
2022-10-22T23:46:55.271Z,15.47
2022-10-22T23:51:54.070Z,15.44
2022-10-22T23:56:52.869Z,15.41
